Terminal Aerodrome Forecast
Issued by NWS

Home | Current Version | Previous Version | Text Only | Print | Product List | Glossary On
Versions: 1 2 3 4 5 6 7 8 9 10 11 12 13 14 15 16 17 18 19
000
FTUS46 KSEW 292324
TAFHQM
TAF
KHQM 292324Z 3000/3024 25012KT P6SM SCT150 BKN250
     FM300600 27006KT P6SM BKN015 BKN250
     FM300900 28006KT P6SM OVC008
     FM301900 22010KT P6SM BKN020
     FM302200 20010KT P6SM VCSH BKN030=

USA.gov is the U.S. government's official web portal to all federal, state and local government web resources and services.